sensor_id;sensor_type;location;lat;lon;timestamp;pressure;altitude;pressure_sealevel;temperature;humidity
53619;BME280;39505;53.040;18.488;2022-12-11T00:00:06;100655.63;;;0.29;100.00
53619;BME280;39505;53.040;18.488;2022-12-11T00:00:39;100653.84;;;0.30;100.00
53619;BME280;39505;53.040;18.488;2022-12-11T00:01:15;100660.19;;;0.26;100.00
53619;BME280;39505;53.040;18.488;2022-12-11T00:01:28;100656.63;;;0.27;100.00
53619;BME280;39505;53.040;18.488;2022-12-11T00:01:42;100659.28;;;0.27;100.00
53619;BME280;39505;53.040;18.488;2022-12-11T00:01:54;100656.63;;;0.27;100.00
53619;BME280;39505;53.040;18.488;2022-12-11T00:02:07;100651.38;;;0.27;100.00
53619;BME280;39505;53.040;18.488;2022-12-11T00:02:21;100653.16;;;0.26;100.00
53619;BME280;39505;53.040;18.488;2022-12-11T00:02:33;100663.59;;;0.28;100.00
53619;BME280;39505;53.040;18.488;2022-12-11T00:02:46;100653.16;;;0.26;100.00
53619;BME280;39505;53.040;18.488;2022-12-11T00:02:59;100652.28;;;0.26;100.00
53619;BME280;39505;53.040;18.488;2022-12-11T00:03:11;100651.38;;;0.27;100.00
53619;BME280;39505;53.040;18.488;2022-12-11T00:03:27;100653.16;;;0.26;100.00
53619;BME280;39505;53.040;18.488;2022-12-11T00:03:40;100650.56;;;0.25;100.00
53619;BME280;39505;53.040;18.488;2022-12-11T00:03:54;100655.84;;;0.25;100.00
53619;BME280;39505;53.040;18.488;2022-12-11T00:04:06;100654.00;;;0.27;100.00
53619;BME280;39505;53.040;18.488;2022-12-11T00:04:19;100647.00;;;0.26;100.00
53619;BME280;39505;53.040;18.488;2022-12-11T00:04:32;100654.00;;;0.27;100.00
53619;BME280;39505;53.040;18.488;2022-12-11T00:04:44;100653.16;;;0.26;100.00
53619;BME280;39505;53.040;18.488;2022-12-11T00:04:58;100654.00;;;0.27;100.00
53619;BME280;39505;53.040;18.488;2022-12-11T00:05:11;100654.91;;;0.26;100.00
53619;BME280;39505;53.040;18.488;2022-12-11T00:05:24;100649.56;;;0.27;100.00
53619;BME280;39505;53.040;18.488;2022-12-11T00:05:38;100657.44;;;0.29;100.00
53619;BME280;39505;53.040;18.488;2022-12-11T00:05:51;100649.56;;;0.27;100.00
53619;BME280;39505;53.040;18.488;2022-12-11T00:06:05;100655.69;;;0.28;100.00
53619;BME280;39505;53.040;18.488;2022-12-11T00:06:20;100650.44;;;0.28;100.00
53619;BME280;39505;53.040;18.488;2022-12-11T00:06:34;100646.09;;;0.27;100.00
53619;BME280;39505;53.040;18.488;2022-12-11T00:06:47;100645.16;;;0.28;100.00
53619;BME280;39505;53.040;18.488;2022-12-11T00:07:01;100661.75;;;0.30;100.00
53619;BME280;39505;53.040;18.488;2022-12-11T00:07:14;100650.38;;;0.29;100.00
53619;BME280;39505;53.040;18.488;2022-12-11T00:07:27;100647.78;;;0.28;100.00
53619;BME280;39505;53.040;18.488;2022-12-11T00:07:40;100646.94;;;0.27;100.00
53619;BME280;39505;53.040;18.488;2022-12-11T00:07:53;100652.22;;;0.27;100.00
53619;BME280;39505;53.040;18.488;2022-12-11T00:08:05;100650.44;;;0.28;100.00
53619;BME280;39505;53.040;18.488;2022-12-11T00:08:18;100651.31;;;0.28;100.00
53619;BME280;39505;53.040;18.488;2022-12-11T00:08:31;100653.84;;;0.30;100.00
53619;BME280;39505;53.040;18.488;2022-12-11T00:08:44;100652.16;;;0.29;100.00
53619;BME280;39505;53.040;18.488;2022-12-11T00:08:57;100648.66;;;0.28;100.00
53619;BME280;39505;53.040;18.488;2022-12-11T00:09:10;100650.44;;;0.28;100.00
53619;BME280;39505;53.040;18.488;2022-12-11T00:09:23;100650.44;;;0.28;100.00
53619;BME280;39505;53.040;18.488;2022-12-11T00:09:35;100643.44;;;0.27;100.00
53619;BME280;39505;53.040;18.488;2022-12-11T00:09:48;100651.38;;;0.27;100.00
53619;BME280;39505;53.040;18.488;2022-12-11T00:10:01;100648.72;;;0.27;100.00
53619;BME280;39505;53.040;18.488;2022-12-11T00:10:15;100657.44;;;0.29;100.00
53619;BME280;39505;53.040;18.488;2022-12-11T00:10:27;100651.31;;;0.28;100.00
53619;BME280;39505;53.040;18.488;2022-12-11T00:10:47;100652.22;;;0.27;100.00
53619;BME280;39505;53.040;18.488;2022-12-11T00:11:00;100652.28;;;0.26;100.00
53619;BME280;39505;53.040;18.488;2022-12-11T00:11:15;100647.00;;;0.26;100.00
53619;BME280;39505;53.040;18.488;2022-12-11T00:11:29;100654.00;;;0.27;100.00
53619;BME280;39505;53.040;18.488;2022-12-11T00:11:41;100653.16;;;0.26;100.00
53619;BME280;39505;53.040;18.488;2022-12-11T00:11:54;100653.16;;;0.26;100.00
53619;BME280;39505;53.040;18.488;2022-12-11T00:12:07;100652.28;;;0.26;100.00
53619;BME280;39505;53.040;18.488;2022-12-11T00:12:20;100650.50;;;0.26;100.00
53619;BME280;39505;53.040;18.488;2022-12-11T00:12:33;100654.00;;;0.27;100.00
53619;BME280;39505;53.040;18.488;2022-12-11T00:12:45;100654.00;;;0.27;100.00
53619;BME280;39505;53.040;18.488;2022-12-11T00:12:59;100647.00;;;0.26;100.00
53619;BME280;39505;53.040;18.488;2022-12-11T00:13:11;100651.38;;;0.27;100.00
53619;BME280;39505;53.040;18.488;2022-12-11T00:13:24;100651.38;;;0.27;100.00
53619;BME280;39505;53.040;18.488;2022-12-11T00:13:36;100649.63;;;0.26;100.00
53619;BME280;39505;53.040;18.488;2022-12-11T00:13:49;100652.28;;;0.26;100.00
53619;BME280;39505;53.040;18.488;2022-12-11T00:14:02;100652.28;;;0.26;100.00
53619;BME280;39505;53.040;18.488;2022-12-11T00:14:15;100652.28;;;0.26;100.00
53619;BME280;39505;53.040;18.488;2022-12-11T00:14:29;100659.28;;;0.27;100.00
53619;BME280;39505;53.040;18.488;2022-12-11T00:14:41;100651.38;;;0.27;100.00
53619;BME280;39505;53.040;18.488;2022-12-11T00:14:54;100647.94;;;0.25;100.00
53619;BME280;39505;53.040;18.488;2022-12-11T00:15:07;100651.31;;;0.28;100.00
53619;BME280;39505;53.040;18.488;2022-12-11T00:15:21;100652.22;;;0.27;100.00
53619;BME280;39505;53.040;18.488;2022-12-11T00:15:33;100652.22;;;0.27;100.00
53619;BME280;39505;53.040;18.488;2022-12-11T00:15:46;100650.56;;;0.25;100.00
53619;BME280;39505;53.040;18.488;2022-12-11T00:15:58;100650.56;;;0.25;100.00
53619;BME280;39505;53.040;18.488;2022-12-11T00:16:12;100650.56;;;0.25;100.00
53619;BME280;39505;53.040;18.488;2022-12-11T00:16:25;100649.78;;;0.23;100.00
53619;BME280;39505;53.040;18.488;2022-12-11T00:16:38;100655.97;;;0.22;100.00
53619;BME280;39505;53.040;18.488;2022-12-11T00:16:53;100651.56;;;0.22;100.00
53619;BME280;39505;53.040;18.488;2022-12-11T00:17:05;100651.63;;;0.21;100.00
53619;BME280;39505;53.040;18.488;2022-12-11T00:17:18;100649.06;;;0.19;100.00
53619;BME280;39505;53.040;18.488;2022-12-11T00:17:31;100653.47;;;0.19;100.00
53619;BME280;39505;53.040;18.488;2022-12-11T00:17:44;100644.78;;;0.16;100.00
53619;BME280;39505;53.040;18.488;2022-12-11T00:17:57;100644.72;;;0.18;100.00
53619;BME280;39505;53.040;18.488;2022-12-11T00:18:11;100654.41;;;0.18;100.00
53619;BME280;39505;53.040;18.488;2022-12-11T00:18:24;100648.25;;;0.17;100.00
53619;BME280;39505;53.040;18.488;2022-12-11T00:18:37;100644.00;;;0.14;100.00
53619;BME280;39505;53.040;18.488;2022-12-11T00:18:50;100645.72;;;0.15;100.00
53619;BME280;39505;53.040;18.488;2022-12-11T00:19:02;100649.16;;;0.18;100.00
53619;BME280;39505;53.040;18.488;2022-12-11T00:19:15;100646.56;;;0.16;100.00
53619;BME280;39505;53.040;18.488;2022-12-11T00:19:29;100643.09;;;0.15;100.00
53619;BME280;39505;53.040;18.488;2022-12-11T00:19:42;100651.00;;;0.15;100.00
53619;BME280;39505;53.040;18.488;2022-12-11T00:19:54;100650.06;;;0.16;100.00
53619;BME280;39505;53.040;18.488;2022-12-11T00:20:08;100648.25;;;0.17;100.00
53619;BME280;39505;53.040;18.488;2022-12-11T00:20:20;100645.72;;;0.15;100.00
53619;BME280;39505;53.040;18.488;2022-12-11T00:20:33;100646.56;;;0.16;100.00
53619;BME280;39505;53.040;18.488;2022-12-11T00:20:45;100644.00;;;0.14;100.00
53619;BME280;39505;53.040;18.488;2022-12-11T00:20:59;100647.41;;;0.16;100.00
53619;BME280;39505;53.040;18.488;2022-12-11T00:21:13;100645.72;;;0.15;100.00
53619;BME280;39505;53.040;18.488;2022-12-11T00:21:26;100651.84;;;0.16;100.00
53619;BME280;39505;53.040;18.488;2022-12-11T00:21:39;100644.00;;;0.14;100.00
53619;BME280;39505;53.040;18.488;2022-12-11T00:21:51;100641.41;;;0.13;100.00
53619;BME280;39505;53.040;18.488;2022-12-11T00:22:05;100645.84;;;0.12;100.00
53619;BME280;39505;53.040;18.488;2022-12-11T00:22:18;100646.78;;;0.11;100.00
53619;BME280;39505;53.040;18.488;2022-12-11T00:22:31;100645.06;;;0.10;100.00
53619;BME280;39505;53.040;18.488;2022-12-11T00:22:43;100646.78;;;0.11;100.00
53619;BME280;39505;53.040;18.488;2022-12-11T00:22:56;100642.41;;;0.10;100.00
53619;BME280;39505;53.040;18.488;2022-12-11T00:23:10;100648.56;;;0.11;100.00
53619;BME280;39505;53.040;18.488;2022-12-11T00:23:23;100640.66;;;0.11;100.00
53619;BME280;39505;53.040;18.488;2022-12-11T00:23:35;100645.06;;;0.10;100.00
53619;BME280;39505;53.040;18.488;2022-12-11T00:23:48;100644.16;;;0.11;100.00
53619;BME280;39505;53.040;18.488;2022-12-11T00:24:01;100639.78;;;0.10;100.00
53619;BME280;39505;53.040;18.488;2022-12-11T00:24:13;100647.69;;;0.10;100.00
53619;BME280;39505;53.040;18.488;2022-12-11T00:24:27;100648.47;;;0.12;100.00
53619;BME280;39505;53.040;18.488;2022-12-11T00:24:39;100639.72;;;0.12;100.00
53619;BME280;39505;53.040;18.488;2022-12-11T00:24:52;100642.31;;;0.13;100.00
53619;BME280;39505;53.040;18.488;2022-12-11T00:25:05;100650.22;;;0.13;100.00
53619;BME280;39505;53.040;18.488;2022-12-11T00:25:18;100643.22;;;0.12;100.00
53619;BME280;39505;53.040;18.488;2022-12-11T00:25:30;100642.41;;;0.10;100.00
53619;BME280;39505;53.040;18.488;2022-12-11T00:25:45;100646.00;;;0.09;100.00
53619;BME280;39505;53.040;18.488;2022-12-11T00:25:58;100639.94;;;0.07;100.00
53619;BME280;39505;53.040;18.488;2022-12-11T00:26:13;100646.91;;;0.08;100.00
53619;BME280;39505;53.040;18.488;2022-12-11T00:26:26;100640.00;;;0.06;100.00
53619;BME280;39505;53.040;18.488;2022-12-11T00:26:39;100648.84;;;0.05;100.00
53619;BME280;39505;53.040;18.488;2022-12-11T00:26:52;100644.41;;;0.05;100.00
53619;BME280;39505;53.040;18.488;2022-12-11T00:27:04;100638.34;;;0.03;100.00
53619;BME280;39505;53.040;18.488;2022-12-11T00:27:17;100643.69;;;0.02;100.00
53619;BME280;39505;53.040;18.488;2022-12-11T00:27:31;100641.13;;;0.00;100.00
53619;BME280;39505;53.040;18.488;2022-12-11T00:27:44;100645.53;;;-0.00;100.00
53619;BME280;39505;53.040;18.488;2022-12-11T00:27:57;100642.97;;;-0.02;100.00
53619;BME280;39505;53.040;18.488;2022-12-11T00:28:09;100637.72;;;-0.02;100.00
53619;BME280;39505;53.040;18.488;2022-12-11T00:28:22;100641.25;;;-0.03;100.00
53619;BME280;39505;53.040;18.488;2022-12-11T00:28:35;100640.47;;;-0.05;100.00
53619;BME280;39505;53.040;18.488;2022-12-11T00:28:51;100637.81;;;-0.05;100.00
53619;BME280;39505;53.040;18.488;2022-12-11T00:29:04;100635.19;;;-0.05;100.00
53619;BME280;39505;53.040;18.488;2022-12-11T00:29:19;100637.81;;;-0.05;100.00
53619;BME280;39505;53.040;18.488;2022-12-11T00:29:32;100635.34;;;-0.08;100.00
53619;BME280;39505;53.040;18.488;2022-12-11T00:29:44;100636.97;;;-0.06;100.00
53619;BME280;39505;53.040;18.488;2022-12-11T00:29:57;100634.34;;;-0.06;100.00
53619;BME280;39505;53.040;18.488;2022-12-11T00:30:10;100633.50;;;-0.06;100.00
53619;BME280;39505;53.040;18.488;2022-12-11T00:30:23;100630.88;;;-0.06;100.00
53619;BME280;39505;53.040;18.488;2022-12-11T00:30:37;100636.97;;;-0.06;100.00
53619;BME280;39505;53.040;18.488;2022-12-11T00:30:50;100630.06;;;-0.08;100.00
53619;BME280;39505;53.040;18.488;2022-12-11T00:31:06;100629.22;;;-0.09;100.00
53619;BME280;39505;53.040;18.488;2022-12-11T00:31:20;100636.13;;;-0.06;100.00
53619;BME280;39505;53.040;18.488;2022-12-11T00:31:33;100632.72;;;-0.08;100.00
53619;BME280;39505;53.040;18.488;2022-12-11T00:31:46;100632.66;;;-0.07;100.00
53619;BME280;39505;53.040;18.488;2022-12-11T00:32:00;100631.72;;;-0.06;100.00
53619;BME280;39505;53.040;18.488;2022-12-11T00:32:14;100636.13;;;-0.06;100.00
53619;BME280;39505;53.040;18.488;2022-12-11T00:32:26;100634.41;;;-0.07;100.00
53619;BME280;39505;53.040;18.488;2022-12-11T00:32:40;100628.13;;;-0.05;100.00
53619;BME280;39505;53.040;18.488;2022-12-11T00:32:52;100633.41;;;-0.05;100.00
53619;BME280;39505;53.040;18.488;2022-12-11T00:33:05;100630.88;;;-0.06;100.00
53619;BME280;39505;53.040;18.488;2022-12-11T00:33:18;100633.41;;;-0.05;100.00
53619;BME280;39505;53.040;18.488;2022-12-11T00:33:30;100636.13;;;-0.06;100.00
53619;BME280;39505;53.040;18.488;2022-12-11T00:33:44;100625.59;;;-0.06;100.00
53619;BME280;39505;53.040;18.488;2022-12-11T00:34:00;100627.22;;;-0.04;100.00
53619;BME280;39505;53.040;18.488;2022-12-11T00:34:13;100629.00;;;-0.04;100.00
53619;BME280;39505;53.040;18.488;2022-12-11T00:34:26;100630.72;;;-0.03;100.00
53619;BME280;39505;53.040;18.488;2022-12-11T00:34:38;100636.91;;;-0.04;100.00
53619;BME280;39505;53.040;18.488;2022-12-11T00:34:51;100625.44;;;-0.03;100.00
53619;BME280;39505;53.040;18.488;2022-12-11T00:35:05;100630.66;;;-0.01;100.00
53619;BME280;39505;53.040;18.488;2022-12-11T00:35:18;100628.94;;;-0.02;100.00
53619;BME280;39505;53.040;18.488;2022-12-11T00:35:30;100623.59;;;-0.01;100.00
53619;BME280;39505;53.040;18.488;2022-12-11T00:35:44;100634.13;;;-0.01;100.00
53619;BME280;39505;53.040;18.488;2022-12-11T00:35:57;100630.59;;;0.00;100.00
53619;BME280;39505;53.040;18.488;2022-12-11T00:36:12;100630.59;;;0.00;100.00
53619;BME280;39505;53.040;18.488;2022-12-11T00:36:25;100633.22;;;0.00;100.00
53619;BME280;39505;53.040;18.488;2022-12-11T00:36:39;100628.75;;;0.02;100.00
53619;BME280;39505;53.040;18.488;2022-12-11T00:36:52;100627.03;;;0.01;100.00
53619;BME280;39505;53.040;18.488;2022-12-11T00:37:04;100633.13;;;0.02;100.00
53619;BME280;39505;53.040;18.488;2022-12-11T00:37:17;100628.75;;;0.02;100.00
53619;BME280;39505;53.040;18.488;2022-12-11T00:37:30;100627.81;;;0.03;100.00
53619;BME280;39505;53.040;18.488;2022-12-11T00:37:42;100630.44;;;0.03;100.00
53619;BME280;39505;53.040;18.488;2022-12-11T00:37:56;100625.91;;;0.07;100.00
53619;BME280;39505;53.040;18.488;2022-12-11T00:38:13;100634.72;;;0.06;100.00
53619;BME280;39505;53.040;18.488;2022-12-11T00:38:26;100636.50;;;0.05;100.00
53619;BME280;39505;53.040;18.488;2022-12-11T00:38:40;100633.88;;;0.05;100.00
53619;BME280;39505;53.040;18.488;2022-12-11T00:38:53;100631.38;;;0.02;100.00
53619;BME280;39505;53.040;18.488;2022-12-11T00:39:07;100630.44;;;0.03;100.00
53619;BME280;39505;53.040;18.488;2022-12-11T00:39:19;100636.66;;;0.02;100.00
53619;BME280;39505;53.040;18.488;2022-12-11T00:39:32;100630.44;;;0.03;100.00
53619;BME280;39505;53.040;18.488;2022-12-11T00:39:45;100635.78;;;0.02;100.00
53619;BME280;39505;53.040;18.488;2022-12-11T00:39:58;100630.50;;;0.02;100.00
53619;BME280;39505;53.040;18.488;2022-12-11T00:40:10;100635.72;;;0.03;100.00
53619;BME280;39505;53.040;18.488;2022-12-11T00:40:23;100634.03;;;0.02;100.00
53619;BME280;39505;53.040;18.488;2022-12-11T00:40:37;100630.44;;;0.03;100.00
53619;BME280;39505;53.040;18.488;2022-12-11T00:40:49;100638.41;;;0.02;100.00
53619;BME280;39505;53.040;18.488;2022-12-11T00:41:02;100635.78;;;0.02;100.00
53619;BME280;39505;53.040;18.488;2022-12-11T00:41:15;100630.50;;;0.02;100.00
53619;BME280;39505;53.040;18.488;2022-12-11T00:41:27;100632.28;;;0.01;100.00
53619;BME280;39505;53.040;18.488;2022-12-11T00:41:40;100628.75;;;0.02;100.00
53619;BME280;39505;53.040;18.488;2022-12-11T00:41:53;100634.88;;;0.03;100.00
53619;BME280;39505;53.040;18.488;2022-12-11T00:42:07;100632.28;;;0.01;100.00
53619;BME280;39505;53.040;18.488;2022-12-11T00:42:19;100640.13;;;0.03;100.00
53619;BME280;39505;53.040;18.488;2022-12-11T00:42:32;100638.34;;;0.03;100.00
53619;BME280;39505;53.040;18.488;2022-12-11T00:42:45;100628.75;;;0.02;100.00
53619;BME280;39505;53.040;18.488;2022-12-11T00:42:57;100639.19;;;0.04;100.00
53619;BME280;39505;53.040;18.488;2022-12-11T00:43:10;100628.59;;;0.05;100.00
53619;BME280;39505;53.040;18.488;2022-12-11T00:43:24;100638.28;;;0.05;100.00
53619;BME280;39505;53.040;18.488;2022-12-11T00:43:36;100627.81;;;0.03;100.00
53619;BME280;39505;53.040;18.488;2022-12-11T00:43:49;100630.44;;;0.03;100.00
53619;BME280;39505;53.040;18.488;2022-12-11T00:44:03;100629.50;;;0.04;100.00
53619;BME280;39505;53.040;18.488;2022-12-11T00:44:15;100638.28;;;0.05;100.00
53619;BME280;39505;53.040;18.488;2022-12-11T00:44:29;100637.41;;;0.04;100.00
53619;BME280;39505;53.040;18.488;2022-12-11T00:44:41;100632.13;;;0.04;100.00
53619;BME280;39505;53.040;18.488;2022-12-11T00:44:54;100630.28;;;0.06;100.00
53619;BME280;39505;53.040;18.488;2022-12-11T00:45:08;100633.03;;;0.05;100.00
53619;BME280;39505;53.040;18.488;2022-12-11T00:45:21;100633.88;;;0.05;100.00
53619;BME280;39505;53.040;18.488;2022-12-11T00:45:37;100631.28;;;0.04;100.00
53619;BME280;39505;53.040;18.488;2022-12-11T00:45:50;100628.59;;;0.05;100.00
53619;BME280;39505;53.040;18.488;2022-12-11T00:46:04;100633.88;;;0.05;100.00
53619;BME280;39505;53.040;18.488;2022-12-11T00:46:17;100632.09;;;0.06;100.00
53619;BME280;39505;53.040;18.488;2022-12-11T00:46:30;100631.22;;;0.05;100.00
53619;BME280;39505;53.040;18.488;2022-12-11T00:46:42;100630.28;;;0.06;100.00
53619;BME280;39505;53.040;18.488;2022-12-11T00:46:55;100634.72;;;0.06;100.00
53619;BME280;39505;53.040;18.488;2022-12-11T00:47:10;100630.28;;;0.06;100.00
53619;BME280;39505;53.040;18.488;2022-12-11T00:47:22;100635.56;;;0.06;100.00
53619;BME280;39505;53.040;18.488;2022-12-11T00:47:35;100632.03;;;0.07;100.00
53619;BME280;39505;53.040;18.488;2022-12-11T00:47:47;100636.44;;;0.07;100.00
53619;BME280;39505;53.040;18.488;2022-12-11T00:48:00;100627.66;;;0.06;100.00
53619;BME280;39505;53.040;18.488;2022-12-11T00:48:13;100639.94;;;0.07;100.00
53619;BME280;39505;53.040;18.488;2022-12-11T00:48:26;100634.66;;;0.07;100.00
53619;BME280;39505;53.040;18.488;2022-12-11T00:48:39;100632.03;;;0.07;100.00
53619;BME280;39505;53.040;18.488;2022-12-11T00:48:52;100634.59;;;0.09;100.00
53619;BME280;39505;53.040;18.488;2022-12-11T00:49:04;100631.97;;;0.09;100.00
53619;BME280;39505;53.040;18.488;2022-12-11T00:49:17;100638.16;;;0.08;100.00
53619;BME280;39505;53.040;18.488;2022-12-11T00:49:30;100630.19;;;0.09;100.00
53619;BME280;39505;53.040;18.488;2022-12-11T00:49:42;100632.81;;;0.09;100.00
53619;BME280;39505;53.040;18.488;2022-12-11T00:50:01;100634.66;;;0.07;100.00
53619;BME280;39505;53.040;18.488;2022-12-11T00:50:14;100637.16;;;0.10;100.00
53619;BME280;39505;53.040;18.488;2022-12-11T00:50:26;100639.72;;;0.12;100.00
53619;BME280;39505;53.040;18.488;2022-12-11T00:50:39;100633.59;;;0.11;100.00
53619;BME280;39505;53.040;18.488;2022-12-11T00:50:52;100635.28;;;0.12;100.00
53619;BME280;39505;53.040;18.488;2022-12-11T00:51:05;100628.31;;;0.11;100.00
53619;BME280;39505;53.040;18.488;2022-12-11T00:51:19;100633.59;;;0.11;100.00
53619;BME280;39505;53.040;18.488;2022-12-11T00:51:31;100631.88;;;0.10;100.00
53619;BME280;39505;53.040;18.488;2022-12-11T00:51:44;100629.25;;;0.10;100.00
53619;BME280;39505;53.040;18.488;2022-12-11T00:51:57;100635.44;;;0.09;100.00
53619;BME280;39505;53.040;18.488;2022-12-11T00:52:09;100627.59;;;0.08;100.00
53619;BME280;39505;53.040;18.488;2022-12-11T00:52:22;100635.44;;;0.09;100.00
53619;BME280;39505;53.040;18.488;2022-12-11T00:52:36;100635.50;;;0.08;100.00
53619;BME280;39505;53.040;18.488;2022-12-11T00:52:49;100636.34;;;0.08;100.00
53619;BME280;39505;53.040;18.488;2022-12-11T00:53:02;100636.44;;;0.07;100.00
53619;BME280;39505;53.040;18.488;2022-12-11T00:53:15;100634.72;;;0.06;100.00
53619;BME280;39505;53.040;18.488;2022-12-11T00:53:28;100632.94;;;0.06;100.00
53619;BME280;39505;53.040;18.488;2022-12-11T00:53:41;100632.94;;;0.06;100.00
53619;BME280;39505;53.040;18.488;2022-12-11T00:53:54;100635.56;;;0.06;100.00
53619;BME280;39505;53.040;18.488;2022-12-11T00:54:07;100633.88;;;0.05;100.00
53619;BME280;39505;53.040;18.488;2022-12-11T00:54:20;100634.72;;;0.06;100.00
53619;BME280;39505;53.040;18.488;2022-12-11T00:54:33;100625.03;;;0.06;100.00
53619;BME280;39505;53.040;18.488;2022-12-11T00:54:45;100632.94;;;0.06;100.00
53619;BME280;39505;53.040;18.488;2022-12-11T00:54:58;100630.28;;;0.06;100.00
53619;BME280;39505;53.040;18.488;2022-12-11T00:55:11;100630.38;;;0.05;100.00
53619;BME280;39505;53.040;18.488;2022-12-11T00:55:24;100633.88;;;0.05;100.00
53619;BME280;39505;53.040;18.488;2022-12-11T00:55:41;100631.22;;;0.05;100.00
53619;BME280;39505;53.040;18.488;2022-12-11T00:55:54;100630.28;;;0.06;100.00
53619;BME280;39505;53.040;18.488;2022-12-11T00:56:11;100631.22;;;0.05;100.00
53619;BME280;39505;53.040;18.488;2022-12-11T00:56:25;100633.88;;;0.05;100.00
53619;BME280;39505;53.040;18.488;2022-12-11T00:56:38;100636.44;;;0.07;100.00
53619;BME280;39505;53.040;18.488;2022-12-11T00:56:51;100633.81;;;0.07;100.00
53619;BME280;39505;53.040;18.488;2022-12-11T00:57:06;100638.19;;;0.06;100.00
53619;BME280;39505;53.040;18.488;2022-12-11T00:57:18;100631.22;;;0.05;100.00
53619;BME280;39505;53.040;18.488;2022-12-11T00:57:31;100627.66;;;0.06;100.00
53619;BME280;39505;53.040;18.488;2022-12-11T00:57:44;100634.59;;;0.09;100.00
53619;BME280;39505;53.040;18.488;2022-12-11T00:57:57;100630.22;;;0.08;100.00
53619;BME280;39505;53.040;18.488;2022-12-11T00:58:10;100636.44;;;0.07;100.00
53619;BME280;39505;53.040;18.488;2022-12-11T00:58:24;100631.19;;;0.07;100.00
53619;BME280;39505;53.040;18.488;2022-12-11T00:58:36;100633.88;;;0.05;100.00
53619;BME280;39505;53.040;18.488;2022-12-11T00:58:49;100628.59;;;0.05;100.00
53619;BME280;39505;53.040;18.488;2022-12-11T00:59:02;100630.28;;;0.06;100.00
53619;BME280;39505;53.040;18.488;2022-12-11T00:59:15;100631.28;;;0.04;100.00
53619;BME280;39505;53.040;18.488;2022-12-11T00:59:28;100633.09;;;0.03;100.00
53619;BME280;39505;53.040;18.488;2022-12-11T00:59:41;100627.88;;;0.02;100.00
53619;BME280;39505;53.040;18.488;2022-12-11T00:59:53;100634.03;;;0.02;100.00
53619;BME280;39505;53.040;18.488;2022-12-11T01:00:07;100635.72;;;0.03;100.00
53619;BME280;39505;53.040;18.488;2022-12-11T01:00:20;100636.66;;;0.02;100.00
53619;BME280;39505;53.040;18.488;2022-12-11T01:00:34;100630.44;;;0.03;100.00
53619;BME280;39505;53.040;18.488;2022-12-11T01:00:48;100634.03;;;0.02;100.00
53619;BME280;39505;53.040;18.488;2022-12-11T01:01:05;100623.47;;;0.02;100.00
53619;BME280;39505;53.040;18.488;2022-12-11T01:01:20;100621.59;;;0.04;100.00
53619;BME280;39505;53.040;18.488;2022-12-11T01:01:33;100630.44;;;0.03;100.00
53619;BME280;39505;53.040;18.488;2022-12-11T01:01:46;100632.13;;;0.04;100.00
53619;BME280;39505;53.040;18.488;2022-12-11T01:01:59;100626.88;;;0.04;100.00
53619;BME280;39505;53.040;18.488;2022-12-11T01:02:13;100633.09;;;0.03;100.00
53619;BME280;39505;53.040;18.488;2022-12-11T01:02:26;100626.88;;;0.04;100.00
53619;BME280;39505;53.040;18.488;2022-12-11T01:02:39;100626.88;;;0.04;100.00
53619;BME280;39505;53.040;18.488;2022-12-11T01:02:51;100626.03;;;0.04;100.00
53619;BME280;39505;53.040;18.488;2022-12-11T01:03:04;100622.59;;;0.02;100.00
53619;BME280;39505;53.040;18.488;2022-12-11T01:03:17;100626.97;;;0.03;100.00
53619;BME280;39505;53.040;18.488;2022-12-11T01:03:31;100621.69;;;0.03;100.00
53619;BME280;39505;53.040;18.488;2022-12-11T01:03:44;100621.75;;;0.01;100.00
53619;BME280;39505;53.040;18.488;2022-12-11T01:03:57;100628.75;;;0.02;100.00
53619;BME280;39505;53.040;18.488;2022-12-11T01:04:10;100625.22;;;0.02;100.00
53619;BME280;39505;53.040;18.488;2022-12-11T01:04:22;100621.75;;;0.01;100.00
53619;BME280;39505;53.040;18.488;2022-12-11T01:04:35;100627.88;;;0.02;100.00
53619;BME280;39505;53.040;18.488;2022-12-11T01:04:49;100622.59;;;0.02;100.00
53619;BME280;39505;53.040;18.488;2022-12-11T01:05:02;100626.97;;;0.03;100.00
53619;BME280;39505;53.040;18.488;2022-12-11T01:05:16;100631.44;;;0.01;100.00
53619;BME280;39505;53.040;18.488;2022-12-11T01:05:29;100628.75;;;0.02;100.00
53619;BME280;39505;53.040;18.488;2022-12-11T01:05:50;100622.53;;;0.03;100.00
53619;BME280;39505;53.040;18.488;2022-12-11T01:06:03;100623.47;;;0.02;100.00
53619;BME280;39505;53.040;18.488;2022-12-11T01:06:19;100634.88;;;0.03;100.00
53619;BME280;39505;53.040;18.488;2022-12-11T01:06:32;100626.97;;;0.03;100.00
53619;BME280;39505;53.040;18.488;2022-12-11T01:06:44;100620.84;;;0.02;100.00
53619;BME280;39505;53.040;18.488;2022-12-11T01:06:57;100629.59;;;0.03;100.00
53619;BME280;39505;53.040;18.488;2022-12-11T01:07:10;100623.47;;;0.02;100.00
53619;BME280;39505;53.040;18.488;2022-12-11T01:07:22;100627.03;;;0.01;100.00
53619;BME280;39505;53.040;18.488;2022-12-11T01:07:35;100627.16;;;-0.02;100.00
53619;BME280;39505;53.040;18.488;2022-12-11T01:07:49;100624.44;;;-0.00;100.00
53619;BME280;39505;53.040;18.488;2022-12-11T01:08:02;100629.72;;;-0.00;100.00
53619;BME280;39505;53.040;18.488;2022-12-11T01:08:15;100621.91;;;-0.02;100.00
53619;BME280;39505;53.040;18.488;2022-12-11T01:08:28;100627.16;;;-0.02;100.00
53619;BME280;39505;53.040;18.488;2022-12-11T01:08:46;100624.59;;;-0.04;100.00